sensor_id;sensor_type;location;lat;lon;timestamp;P1;durP1;ratioP1;P2;durP2;ratioP2
20559;SDS011;10438;51.454;6.718;2023-02-02T00:00:57;23.20;;;4.00;;
20559;SDS011;10438;51.454;6.718;2023-02-02T01:13:00;28.13;;;5.80;;
20559;SDS011;10438;51.454;6.718;2023-02-02T01:15:25;28.83;;;5.70;;
20559;SDS011;10438;51.454;6.718;2023-02-02T01:17:51;32.10;;;5.53;;
20559;SDS011;10438;51.454;6.718;2023-02-02T01:20:18;31.53;;;5.50;;
20559;SDS011;10438;51.454;6.718;2023-02-02T01:22:44;30.33;;;5.23;;
20559;SDS011;10438;51.454;6.718;2023-02-02T01:25:10;29.90;;;5.53;;
20559;SDS011;10438;51.454;6.718;2023-02-02T01:27:36;27.90;;;5.53;;
20559;SDS011;10438;51.454;6.718;2023-02-02T01:30:01;28.50;;;5.60;;
20559;SDS011;10438;51.454;6.718;2023-02-02T01:32:27;30.30;;;5.70;;
20559;SDS011;10438;51.454;6.718;2023-02-02T01:34:53;30.80;;;6.67;;
20559;SDS011;10438;51.454;6.718;2023-02-02T01:37:18;28.07;;;5.43;;
20559;SDS011;10438;51.454;6.718;2023-02-02T01:39:46;23.27;;;5.33;;
20559;SDS011;10438;51.454;6.718;2023-02-02T01:42:13;22.47;;;5.43;;
20559;SDS011;10438;51.454;6.718;2023-02-02T01:47:49;25.40;;;5.60;;
20559;SDS011;10438;51.454;6.718;2023-02-02T01:50:25;27.23;;;5.37;;
20559;SDS011;10438;51.454;6.718;2023-02-02T01:52:54;22.27;;;5.50;;
20559;SDS011;10438;51.454;6.718;2023-02-02T01:55:22;25.83;;;4.83;;
20559;SDS011;10438;51.454;6.718;2023-02-02T01:57:58;24.80;;;5.70;;
20559;SDS011;10438;51.454;6.718;2023-02-02T02:00:26;30.70;;;5.37;;
20559;SDS011;10438;51.454;6.718;2023-02-02T02:03:03;29.80;;;5.73;;
20559;SDS011;10438;51.454;6.718;2023-02-02T02:05:35;27.97;;;5.37;;
20559;SDS011;10438;51.454;6.718;2023-02-02T02:08:09;24.87;;;5.30;;
20559;SDS011;10438;51.454;6.718;2023-02-02T02:10:42;23.87;;;5.40;;
20559;SDS011;10438;51.454;6.718;2023-02-02T02:13:07;21.93;;;5.70;;
20559;SDS011;10438;51.454;6.718;2023-02-02T02:15:35;33.27;;;6.90;;
20559;SDS011;10438;51.454;6.718;2023-02-02T02:18:32;21.83;;;4.77;;
20559;SDS011;10438;51.454;6.718;2023-02-02T02:21:29;26.00;;;4.97;;
20559;SDS011;10438;51.454;6.718;2023-02-02T02:24:37;24.67;;;5.30;;
20559;SDS011;10438;51.454;6.718;2023-02-02T02:30:54;17.83;;;5.10;;
20559;SDS011;10438;51.454;6.718;2023-02-02T02:33:44;18.67;;;5.80;;
20559;SDS011;10438;51.454;6.718;2023-02-02T02:36:43;25.27;;;4.87;;
20559;SDS011;10438;51.454;6.718;2023-02-02T02:39:24;22.37;;;5.40;;
20559;SDS011;10438;51.454;6.718;2023-02-02T02:42:10;27.93;;;5.67;;
20559;SDS011;10438;51.454;6.718;2023-02-02T02:44:40;34.63;;;6.50;;
20559;SDS011;10438;51.454;6.718;2023-02-02T02:47:06;27.87;;;5.97;;
20559;SDS011;10438;51.454;6.718;2023-02-02T02:49:32;29.50;;;6.27;;
20559;SDS011;10438;51.454;6.718;2023-02-02T02:52:06;36.33;;;6.60;;
20559;SDS011;10438;51.454;6.718;2023-02-02T02:54:33;33.03;;;6.57;;
20559;SDS011;10438;51.454;6.718;2023-02-02T06:55:23;23.53;;;5.00;;
20559;SDS011;10438;51.454;6.718;2023-02-02T06:57:54;18.97;;;4.87;;
20559;SDS011;10438;51.454;6.718;2023-02-02T07:00:24;20.87;;;5.43;;
20559;SDS011;10438;51.454;6.718;2023-02-02T07:02:50;18.87;;;5.43;;
20559;SDS011;10438;51.454;6.718;2023-02-02T07:05:15;20.80;;;5.63;;
20559;SDS011;10438;51.454;6.718;2023-02-02T07:07:43;19.80;;;6.13;;
20559;SDS011;10438;51.454;6.718;2023-02-02T07:10:09;20.60;;;6.00;;
20559;SDS011;10438;51.454;6.718;2023-02-02T07:12:35;18.30;;;5.93;;
20559;SDS011;10438;51.454;6.718;2023-02-02T07:15:01;26.03;;;6.00;;
20559;SDS011;10438;51.454;6.718;2023-02-02T07:17:26;28.57;;;7.00;;
20559;SDS011;10438;51.454;6.718;2023-02-02T07:19:53;20.83;;;6.13;;
20559;SDS011;10438;51.454;6.718;2023-02-02T07:22:18;27.33;;;7.13;;
20559;SDS011;10438;51.454;6.718;2023-02-02T07:24:44;25.80;;;5.87;;
20559;SDS011;10438;51.454;6.718;2023-02-02T07:27:09;23.53;;;5.80;;
20559;SDS011;10438;51.454;6.718;2023-02-02T07:29:35;28.87;;;6.33;;
20559;SDS011;10438;51.454;6.718;2023-02-02T07:32:00;22.57;;;6.57;;
20559;SDS011;10438;51.454;6.718;2023-02-02T07:34:26;19.23;;;6.03;;
20559;SDS011;10438;51.454;6.718;2023-02-02T07:36:51;19.13;;;5.93;;
20559;SDS011;10438;51.454;6.718;2023-02-02T07:39:17;21.53;;;5.83;;
20559;SDS011;10438;51.454;6.718;2023-02-02T07:41:42;19.20;;;5.53;;
20559;SDS011;10438;51.454;6.718;2023-02-02T07:44:09;33.23;;;7.23;;
20559;SDS011;10438;51.454;6.718;2023-02-02T07:46:41;27.83;;;6.53;;
20559;SDS011;10438;51.454;6.718;2023-02-02T07:49:10;23.37;;;5.97;;
20559;SDS011;10438;51.454;6.718;2023-02-02T07:51:38;22.77;;;6.47;;
20559;SDS011;10438;51.454;6.718;2023-02-02T07:54:04;28.17;;;7.23;;
20559;SDS011;10438;51.454;6.718;2023-02-02T07:56:30;20.30;;;6.03;;
20559;SDS011;10438;51.454;6.718;2023-02-02T07:58:55;18.10;;;5.40;;
20559;SDS011;10438;51.454;6.718;2023-02-02T08:01:21;23.03;;;5.97;;
20559;SDS011;10438;51.454;6.718;2023-02-02T08:03:50;20.80;;;6.17;;
20559;SDS011;10438;51.454;6.718;2023-02-02T08:06:18;22.63;;;5.90;;
20559;SDS011;10438;51.454;6.718;2023-02-02T08:08:47;20.03;;;5.40;;
20559;SDS011;10438;51.454;6.718;2023-02-02T08:11:14;25.97;;;6.23;;
20559;SDS011;10438;51.454;6.718;2023-02-02T08:13:41;24.47;;;6.60;;
20559;SDS011;10438;51.454;6.718;2023-02-02T08:16:07;27.27;;;6.73;;
20559;SDS011;10438;51.454;6.718;2023-02-02T08:18:33;17.07;;;5.20;;
20559;SDS011;10438;51.454;6.718;2023-02-02T08:21:00;18.50;;;5.93;;
20559;SDS011;10438;51.454;6.718;2023-02-02T08:23:26;23.77;;;6.07;;
20559;SDS011;10438;51.454;6.718;2023-02-02T08:25:53;25.17;;;6.33;;
20559;SDS011;10438;51.454;6.718;2023-02-02T08:28:19;23.27;;;6.90;;
20559;SDS011;10438;51.454;6.718;2023-02-02T08:30:45;20.27;;;5.43;;
20559;SDS011;10438;51.454;6.718;2023-02-02T08:33:10;20.60;;;6.30;;
20559;SDS011;10438;51.454;6.718;2023-02-02T08:35:43;22.93;;;6.77;;
20559;SDS011;10438;51.454;6.718;2023-02-02T08:38:08;21.60;;;5.90;;
20559;SDS011;10438;51.454;6.718;2023-02-02T08:40:34;25.37;;;7.27;;
20559;SDS011;10438;51.454;6.718;2023-02-02T08:43:00;28.23;;;6.40;;
20559;SDS011;10438;51.454;6.718;2023-02-02T08:45:25;18.03;;;5.63;;
20559;SDS011;10438;51.454;6.718;2023-02-02T08:47:51;29.57;;;6.67;;
20559;SDS011;10438;51.454;6.718;2023-02-02T08:50:17;21.27;;;7.10;;
20559;SDS011;10438;51.454;6.718;2023-02-02T08:52:43;26.33;;;6.10;;
20559;SDS011;10438;51.454;6.718;2023-02-02T08:55:09;27.87;;;7.73;;
20559;SDS011;10438;51.454;6.718;2023-02-02T08:57:34;34.43;;;7.73;;
20559;SDS011;10438;51.454;6.718;2023-02-02T09:00:00;25.43;;;6.63;;
20559;SDS011;10438;51.454;6.718;2023-02-02T09:02:26;28.93;;;6.80;;
20559;SDS011;10438;51.454;6.718;2023-02-02T09:04:52;27.70;;;7.27;;
20559;SDS011;10438;51.454;6.718;2023-02-02T09:07:17;20.13;;;6.73;;
20559;SDS011;10438;51.454;6.718;2023-02-02T09:09:43;32.57;;;7.57;;
20559;SDS011;10438;51.454;6.718;2023-02-02T09:12:08;30.40;;;8.17;;
20559;SDS011;10438;51.454;6.718;2023-02-02T09:14:34;30.57;;;7.70;;
20559;SDS011;10438;51.454;6.718;2023-02-02T09:16:59;24.07;;;7.40;;
20559;SDS011;10438;51.454;6.718;2023-02-02T09:19:25;32.27;;;8.00;;
20559;SDS011;10438;51.454;6.718;2023-02-02T09:21:50;23.07;;;6.90;;
20559;SDS011;10438;51.454;6.718;2023-02-02T09:24:16;27.27;;;7.63;;
20559;SDS011;10438;51.454;6.718;2023-02-02T09:26:42;30.67;;;8.40;;
20559;SDS011;10438;51.454;6.718;2023-02-02T09:29:12;27.87;;;8.70;;
20559;SDS011;10438;51.454;6.718;2023-02-02T09:31:39;30.00;;;7.77;;
20559;SDS011;10438;51.454;6.718;2023-02-02T09:34:09;26.03;;;8.67;;
20559;SDS011;10438;51.454;6.718;2023-02-02T09:36:37;27.50;;;7.07;;
20559;SDS011;10438;51.454;6.718;2023-02-02T09:39:04;24.47;;;8.07;;
20559;SDS011;10438;51.454;6.718;2023-02-02T09:52:34;28.57;;;7.13;;
20559;SDS011;10438;51.454;6.718;2023-02-02T09:55:17;28.60;;;7.40;;
20559;SDS011;10438;51.454;6.718;2023-02-02T10:03:32;26.13;;;7.40;;
20559;SDS011;10438;51.454;6.718;2023-02-02T10:06:37;26.80;;;6.67;;
20559;SDS011;10438;51.454;6.718;2023-02-02T10:11:50;27.80;;;7.40;;
20559;SDS011;10438;51.454;6.718;2023-02-02T10:14:19;24.40;;;8.43;;
20559;SDS011;10438;51.454;6.718;2023-02-02T10:16:52;16.43;;;6.63;;
20559;SDS011;10438;51.454;6.718;2023-02-02T10:19:19;21.67;;;7.53;;
20559;SDS011;10438;51.454;6.718;2023-02-02T10:24:24;20.13;;;7.17;;
20559;SDS011;10438;51.454;6.718;2023-02-02T10:26:55;24.17;;;6.67;;
20559;SDS011;10438;51.454;6.718;2023-02-02T10:29:32;21.70;;;6.63;;
20559;SDS011;10438;51.454;6.718;2023-02-02T10:32:14;19.50;;;6.57;;
20559;SDS011;10438;51.454;6.718;2023-02-02T10:37:51;20.93;;;6.17;;
20559;SDS011;10438;51.454;6.718;2023-02-02T10:45:53;20.23;;;6.83;;
20559;SDS011;10438;51.454;6.718;2023-02-02T10:48:21;22.27;;;6.33;;
20559;SDS011;10438;51.454;6.718;2023-02-02T10:51:00;27.37;;;7.37;;
20559;SDS011;10438;51.454;6.718;2023-02-02T10:53:31;25.20;;;7.13;;
20559;SDS011;10438;51.454;6.718;2023-02-02T10:55:58;19.57;;;6.10;;
20559;SDS011;10438;51.454;6.718;2023-02-02T11:01:35;24.20;;;6.67;;
20559;SDS011;10438;51.454;6.718;2023-02-02T11:04:01;17.47;;;5.50;;
20559;SDS011;10438;51.454;6.718;2023-02-02T11:06:45;19.67;;;5.87;;
20559;SDS011;10438;51.454;6.718;2023-02-02T11:09:13;22.73;;;6.67;;
20559;SDS011;10438;51.454;6.718;2023-02-02T11:11:41;16.77;;;5.60;;
20559;SDS011;10438;51.454;6.718;2023-02-02T11:14:13;18.20;;;5.37;;
20559;SDS011;10438;51.454;6.718;2023-02-02T11:16:43;22.30;;;6.20;;
20559;SDS011;10438;51.454;6.718;2023-02-02T11:21:41;20.80;;;5.20;;
20559;SDS011;10438;51.454;6.718;2023-02-02T11:24:20;19.73;;;5.00;;
20559;SDS011;10438;51.454;6.718;2023-02-02T11:29:26;21.00;;;5.53;;
20559;SDS011;10438;51.454;6.718;2023-02-02T11:37:26;24.50;;;6.33;;
20559;SDS011;10438;51.454;6.718;2023-02-02T11:39:53;21.93;;;5.57;;
20559;SDS011;10438;51.454;6.718;2023-02-02T11:42:19;20.17;;;5.40;;
20559;SDS011;10438;51.454;6.718;2023-02-02T11:44:47;17.77;;;5.53;;
20559;SDS011;10438;51.454;6.718;2023-02-02T11:47:20;20.63;;;5.20;;
20559;SDS011;10438;51.454;6.718;2023-02-02T11:49:50;19.07;;;5.27;;
20559;SDS011;10438;51.454;6.718;2023-02-02T11:52:19;21.23;;;5.27;;
20559;SDS011;10438;51.454;6.718;2023-02-02T11:54:48;19.33;;;5.80;;
20559;SDS011;10438;51.454;6.718;2023-02-02T11:57:18;24.50;;;6.10;;
20559;SDS011;10438;51.454;6.718;2023-02-02T11:59:46;19.83;;;5.43;;
20559;SDS011;10438;51.454;6.718;2023-02-02T12:05:46;14.90;;;5.10;;
20559;SDS011;10438;51.454;6.718;2023-02-02T12:07:43;19.53;;;5.23;;
20559;SDS011;10438;51.454;6.718;2023-02-02T12:21:06;20.70;;;5.40;;
20559;SDS011;10438;51.454;6.718;2023-02-02T12:23:45;19.30;;;5.40;;
20559;SDS011;10438;51.454;6.718;2023-02-02T12:26:29;14.20;;;5.20;;
20559;SDS011;10438;51.454;6.718;2023-02-02T12:31:51;17.47;;;5.10;;
20559;SDS011;10438;51.454;6.718;2023-02-02T12:34:36;17.37;;;5.43;;
20559;SDS011;10438;51.454;6.718;2023-02-02T12:37:23;21.33;;;4.90;;
20559;SDS011;10438;51.454;6.718;2023-02-02T12:42:57;13.87;;;4.77;;
20559;SDS011;10438;51.454;6.718;2023-02-02T12:54:11;22.30;;;5.43;;
20559;SDS011;10438;51.454;6.718;2023-02-02T12:59:46;20.37;;;5.60;;
20559;SDS011;10438;51.454;6.718;2023-02-02T13:10:14;29.23;;;5.13;;
20559;SDS011;10438;51.454;6.718;2023-02-02T13:12:42;21.27;;;5.10;;
20559;SDS011;10438;51.454;6.718;2023-02-02T13:15:17;16.63;;;4.70;;
20559;SDS011;10438;51.454;6.718;2023-02-02T13:17:58;18.37;;;5.53;;
20559;SDS011;10438;51.454;6.718;2023-02-02T13:20:45;20.67;;;5.07;;
20559;SDS011;10438;51.454;6.718;2023-02-02T13:23:21;21.20;;;5.03;;
20559;SDS011;10438;51.454;6.718;2023-02-02T13:25:51;18.63;;;4.90;;
20559;SDS011;10438;51.454;6.718;2023-02-02T13:28:27;18.90;;;4.53;;
20559;SDS011;10438;51.454;6.718;2023-02-02T13:31:05;19.57;;;5.17;;
20559;SDS011;10438;51.454;6.718;2023-02-02T13:33:52;19.30;;;5.53;;
20559;SDS011;10438;51.454;6.718;2023-02-02T13:36:26;18.10;;;5.07;;
20559;SDS011;10438;51.454;6.718;2023-02-02T13:39:00;22.20;;;4.70;;
20559;SDS011;10438;51.454;6.718;2023-02-02T13:41:27;13.80;;;5.17;;
20559;SDS011;10438;51.454;6.718;2023-02-02T13:44:03;20.20;;;5.37;;
20559;SDS011;10438;51.454;6.718;2023-02-02T13:46:41;21.60;;;4.70;;
20559;SDS011;10438;51.454;6.718;2023-02-02T13:49:28;28.23;;;5.47;;
20559;SDS011;10438;51.454;6.718;2023-02-02T13:52:14;19.83;;;4.87;;
20559;SDS011;10438;51.454;6.718;2023-02-02T13:55:15;15.73;;;4.80;;
20559;SDS011;10438;51.454;6.718;2023-02-02T13:58:00;21.33;;;4.93;;
20559;SDS011;10438;51.454;6.718;2023-02-02T14:00:39;20.33;;;5.17;;
20559;SDS011;10438;51.454;6.718;2023-02-02T14:08:47;22.03;;;5.90;;
20559;SDS011;10438;51.454;6.718;2023-02-02T14:11:28;17.53;;;5.30;;
20559;SDS011;10438;51.454;6.718;2023-02-02T14:14:18;20.73;;;5.83;;
20559;SDS011;10438;51.454;6.718;2023-02-02T14:16:56;23.67;;;5.80;;
20559;SDS011;10438;51.454;6.718;2023-02-02T14:32:30;21.23;;;5.63;;
20559;SDS011;10438;51.454;6.718;2023-02-02T14:37:46;26.67;;;6.77;;
20559;SDS011;10438;51.454;6.718;2023-02-02T14:40:33;29.13;;;7.67;;
20559;SDS011;10438;51.454;6.718;2023-02-02T14:43:10;22.70;;;7.43;;
20559;SDS011;10438;51.454;6.718;2023-02-02T14:48:40;24.40;;;7.10;;
20559;SDS011;10438;51.454;6.718;2023-02-02T14:51:19;22.50;;;7.10;;
20559;SDS011;10438;51.454;6.718;2023-02-02T14:54:00;21.73;;;7.53;;
20559;SDS011;10438;51.454;6.718;2023-02-02T14:59:11;31.60;;;7.70;;
20559;SDS011;10438;51.454;6.718;2023-02-02T15:01:52;21.07;;;7.10;;
20559;SDS011;10438;51.454;6.718;2023-02-02T15:04:41;23.00;;;6.90;;
20559;SDS011;10438;51.454;6.718;2023-02-02T15:09:48;19.00;;;6.37;;
20559;SDS011;10438;51.454;6.718;2023-02-02T15:12:15;20.57;;;7.37;;
20559;SDS011;10438;51.454;6.718;2023-02-02T15:25:31;26.77;;;6.13;;
20559;SDS011;10438;51.454;6.718;2023-02-02T15:28:25;15.50;;;5.70;;
20559;SDS011;10438;51.454;6.718;2023-02-02T15:33:50;19.53;;;5.50;;
20559;SDS011;10438;51.454;6.718;2023-02-02T15:36:22;21.00;;;5.40;;
20559;SDS011;10438;51.454;6.718;2023-02-02T15:38:51;17.50;;;5.63;;
20559;SDS011;10438;51.454;6.718;2023-02-02T15:41:20;17.60;;;5.30;;
20559;SDS011;10438;51.454;6.718;2023-02-02T15:43:47;15.17;;;4.80;;
20559;SDS011;10438;51.454;6.718;2023-02-02T15:46:14;12.40;;;4.70;;
20559;SDS011;10438;51.454;6.718;2023-02-02T15:49:12;18.50;;;5.60;;
20559;SDS011;10438;51.454;6.718;2023-02-02T15:51:43;16.63;;;5.40;;
20559;SDS011;10438;51.454;6.718;2023-02-02T15:54:21;20.27;;;6.07;;
20559;SDS011;10438;51.454;6.718;2023-02-02T15:56:49;18.83;;;7.33;;
20559;SDS011;10438;51.454;6.718;2023-02-02T15:59:17;34.40;;;9.77;;
20559;SDS011;10438;51.454;6.718;2023-02-02T16:01:47;24.07;;;11.77;;
20559;SDS011;10438;51.454;6.718;2023-02-02T16:07:02;28.93;;;14.17;;
20559;SDS011;10438;51.454;6.718;2023-02-02T16:09:36;29.60;;;13.60;;
20559;SDS011;10438;51.454;6.718;2023-02-02T16:12:05;34.23;;;14.77;;
20559;SDS011;10438;51.454;6.718;2023-02-02T16:14:37;31.73;;;15.13;;
20559;SDS011;10438;51.454;6.718;2023-02-02T16:17:50;28.33;;;15.27;;
20559;SDS011;10438;51.454;6.718;2023-02-02T16:19:56;32.50;;;15.00;;
20559;SDS011;10438;51.454;6.718;2023-02-02T16:22:27;35.00;;;16.50;;
20559;SDS011;10438;51.454;6.718;2023-02-02T16:24:55;30.37;;;15.90;;
20559;SDS011;10438;51.454;6.718;2023-02-02T16:27:25;32.83;;;17.10;;
20559;SDS011;10438;51.454;6.718;2023-02-02T16:29:53;36.73;;;17.47;;
20559;SDS011;10438;51.454;6.718;2023-02-02T16:34:52;35.70;;;17.53;;
20559;SDS011;10438;51.454;6.718;2023-02-02T16:37:22;29.30;;;16.80;;
20559;SDS011;10438;51.454;6.718;2023-02-02T16:39:56;36.07;;;17.57;;
20559;SDS011;10438;51.454;6.718;2023-02-02T16:42:40;32.80;;;17.60;;
20559;SDS011;10438;51.454;6.718;2023-02-02T16:45:06;34.57;;;19.17;;
20559;SDS011;10438;51.454;6.718;2023-02-02T16:47:52;41.80;;;19.00;;
20559;SDS011;10438;51.454;6.718;2023-02-02T16:50:28;39.27;;;19.93;;
20559;SDS011;10438;51.454;6.718;2023-02-02T16:52:56;36.80;;;19.60;;
20559;SDS011;10438;51.454;6.718;2023-02-02T16:55:25;34.07;;;18.97;;
20559;SDS011;10438;51.454;6.718;2023-02-02T16:57:53;36.07;;;19.70;;
20559;SDS011;10438;51.454;6.718;2023-02-02T17:00:21;39.00;;;19.13;;
20559;SDS011;10438;51.454;6.718;2023-02-02T17:02:49;35.00;;;19.90;;
20559;SDS011;10438;51.454;6.718;2023-02-02T17:05:25;33.30;;;19.40;;
20559;SDS011;10438;51.454;6.718;2023-02-02T17:07:56;31.37;;;19.20;;
20559;SDS011;10438;51.454;6.718;2023-02-02T17:10:25;32.23;;;18.20;;
20559;SDS011;10438;51.454;6.718;2023-02-02T17:12:55;35.33;;;19.17;;
20559;SDS011;10438;51.454;6.718;2023-02-02T17:15:27;36.80;;;20.07;;
20559;SDS011;10438;51.454;6.718;2023-02-02T17:17:57;35.00;;;18.63;;
20559;SDS011;10438;51.454;6.718;2023-02-02T17:20:23;32.03;;;19.67;;
20559;SDS011;10438;51.454;6.718;2023-02-02T17:22:53;29.40;;;18.30;;
20559;SDS011;10438;51.454;6.718;2023-02-02T17:25:28;27.17;;;17.00;;
20559;SDS011;10438;51.454;6.718;2023-02-02T17:27:57;31.37;;;17.97;;
20559;SDS011;10438;51.454;6.718;2023-02-02T17:30:24;31.13;;;17.77;;
20559;SDS011;10438;51.454;6.718;2023-02-02T17:32:51;28.27;;;16.77;;
20559;SDS011;10438;51.454;6.718;2023-02-02T17:35:20;27.47;;;17.10;;
20559;SDS011;10438;51.454;6.718;2023-02-02T17:37:47;25.33;;;16.90;;
20559;SDS011;10438;51.454;6.718;2023-02-02T17:40:15;30.83;;;15.70;;
20559;SDS011;10438;51.454;6.718;2023-02-02T17:42:42;29.53;;;17.53;;
20559;SDS011;10438;51.454;6.718;2023-02-02T17:45:31;27.73;;;16.57;;
20559;SDS011;10438;51.454;6.718;2023-02-02T17:47:57;29.93;;;17.60;;
20559;SDS011;10438;51.454;6.718;2023-02-02T17:50:24;30.07;;;17.30;;
20559;SDS011;10438;51.454;6.718;2023-02-02T17:52:49;28.53;;;17.73;;
20559;SDS011;10438;51.454;6.718;2023-02-02T17:55:19;25.80;;;16.37;;
20559;SDS011;10438;51.454;6.718;2023-02-02T17:57:51;25.33;;;16.37;;
20559;SDS011;10438;51.454;6.718;2023-02-02T18:00:19;28.23;;;17.43;;
20559;SDS011;10438;51.454;6.718;2023-02-02T18:02:47;30.77;;;16.93;;
20559;SDS011;10438;51.454;6.718;2023-02-02T18:05:15;31.43;;;18.00;;
20559;SDS011;10438;51.454;6.718;2023-02-02T18:07:41;29.33;;;17.13;;
20559;SDS011;10438;51.454;6.718;2023-02-02T18:10:08;25.00;;;16.67;;
20559;SDS011;10438;51.454;6.718;2023-02-02T18:12:35;28.27;;;16.53;;
20559;SDS011;10438;51.454;6.718;2023-02-02T18:15:01;28.23;;;16.60;;
20559;SDS011;10438;51.454;6.718;2023-02-02T18:17:29;27.70;;;16.97;;
20559;SDS011;10438;51.454;6.718;2023-02-02T18:19:55;29.73;;;17.83;;
20559;SDS011;10438;51.454;6.718;2023-02-02T18:22:21;31.47;;;18.00;;
20559;SDS011;10438;51.454;6.718;2023-02-02T18:24:47;32.70;;;18.73;;
20559;SDS011;10438;51.454;6.718;2023-02-02T18:27:13;32.60;;;19.47;;
20559;SDS011;10438;51.454;6.718;2023-02-02T18:29:39;34.47;;;20.07;;
20559;SDS011;10438;51.454;6.718;2023-02-02T18:32:05;35.37;;;19.40;;
20559;SDS011;10438;51.454;6.718;2023-02-02T18:34:32;38.37;;;21.23;;
20559;SDS011;10438;51.454;6.718;2023-02-02T18:36:58;36.23;;;21.30;;
20559;SDS011;10438;51.454;6.718;2023-02-02T18:39:24;44.73;;;23.07;;
20559;SDS011;10438;51.454;6.718;2023-02-02T18:41:50;36.77;;;22.33;;
20559;SDS011;10438;51.454;6.718;2023-02-02T18:44:15;38.13;;;22.50;;
20559;SDS011;10438;51.454;6.718;2023-02-02T18:46:41;42.10;;;22.17;;
20559;SDS011;10438;51.454;6.718;2023-02-02T18:49:07;40.43;;;21.50;;
20559;SDS011;10438;51.454;6.718;2023-02-02T18:51:32;36.90;;;21.17;;
20559;SDS011;10438;51.454;6.718;2023-02-02T18:53:58;37.73;;;21.80;;
20559;SDS011;10438;51.454;6.718;2023-02-02T18:56:24;50.97;;;23.03;;
20559;SDS011;10438;51.454;6.718;2023-02-02T18:58:51;40.07;;;22.07;;
20559;SDS011;10438;51.454;6.718;2023-02-02T19:01:18;41.97;;;23.70;;
20559;SDS011;10438;51.454;6.718;2023-02-02T19:03:51;41.97;;;24.03;;
20559;SDS011;10438;51.454;6.718;2023-02-02T19:06:18;47.93;;;23.67;;
20559;SDS011;10438;51.454;6.718;2023-02-02T19:09:03;41.67;;;23.50;;
20559;SDS011;10438;51.454;6.718;2023-02-02T19:11:39;43.87;;;24.37;;
20559;SDS011;10438;51.454;6.718;2023-02-02T19:14:10;51.47;;;25.07;;
20559;SDS011;10438;51.454;6.718;2023-02-02T19:16:37;55.13;;;28.20;;
20559;SDS011;10438;51.454;6.718;2023-02-02T19:19:06;51.90;;;24.67;;
20559;SDS011;10438;51.454;6.718;2023-02-02T19:21:37;41.47;;;22.77;;
20559;SDS011;10438;51.454;6.718;2023-02-02T19:24:05;45.83;;;24.20;;
20559;SDS011;10438;51.454;6.718;2023-02-02T19:26:34;48.83;;;23.67;;
20559;SDS011;10438;51.454;6.718;2023-02-02T19:29:06;48.77;;;23.70;;
20559;SDS011;10438;51.454;6.718;2023-02-02T19:31:49;50.27;;;23.83;;
20559;SDS011;10438;51.454;6.718;2023-02-02T19:34:17;45.83;;;21.57;;
20559;SDS011;10438;51.454;6.718;2023-02-02T19:36:45;45.20;;;23.97;;
20559;SDS011;10438;51.454;6.718;2023-02-02T19:39:31;43.53;;;23.10;;
20559;SDS011;10438;51.454;6.718;2023-02-02T19:41:57;45.23;;;22.40;;
20559;SDS011;10438;51.454;6.718;2023-02-02T19:44:25;38.93;;;22.40;;
20559;SDS011;10438;51.454;6.718;2023-02-02T19:46:54;47.37;;;22.40;;
20559;SDS011;10438;51.454;6.718;2023-02-02T19:49:33;43.30;;;22.43;;
20559;SDS011;10438;51.454;6.718;2023-02-02T19:52:00;45.20;;;22.27;;
20559;SDS011;10438;51.454;6.718;2023-02-02T19:54:33;45.53;;;23.33;;
20559;SDS011;10438;51.454;6.718;2023-02-02T19:59:37;43.00;;;23.13;;
20559;SDS011;10438;51.454;6.718;2023-02-02T20:02:21;45.77;;;23.63;;
20559;SDS011;10438;51.454;6.718;2023-02-02T20:04:57;43.57;;;22.83;;
20559;SDS011;10438;51.454;6.718;2023-02-02T20:07:27;47.27;;;24.00;;
20559;SDS011;10438;51.454;6.718;2023-02-02T20:09:54;47.27;;;23.93;;
20559;SDS011;10438;51.454;6.718;2023-02-02T20:12:41;46.67;;;23.13;;
20559;SDS011;10438;51.454;6.718;2023-02-02T20:15:23;38.77;;;21.87;;
20559;SDS011;10438;51.454;6.718;2023-02-02T20:17:52;45.27;;;23.00;;
20559;SDS011;10438;51.454;6.718;2023-02-02T20:22:52;44.90;;;22.70;;
20559;SDS011;10438;51.454;6.718;2023-02-02T20:25:19;35.60;;;21.50;;
20559;SDS011;10438;51.454;6.718;2023-02-02T20:27:45;40.13;;;22.00;;
20559;SDS011;10438;51.454;6.718;2023-02-02T20:30:15;43.07;;;20.83;;
20559;SDS011;10438;51.454;6.718;2023-02-02T20:32:47;44.77;;;22.93;;
20559;SDS011;10438;51.454;6.718;2023-02-02T20:35:21;39.03;;;21.93;;
20559;SDS011;10438;51.454;6.718;2023-02-02T20:37:55;42.40;;;21.77;;
20559;SDS011;10438;51.454;6.718;2023-02-02T20:40:22;47.50;;;22.03;;
20559;SDS011;10438;51.454;6.718;2023-02-02T20:42:50;37.80;;;20.67;;
20559;SDS011;10438;51.454;6.718;2023-02-02T20:45:16;35.93;;;20.67;;
20559;SDS011;10438;51.454;6.718;2023-02-02T20:47:43;40.57;;;20.67;;
20559;SDS011;10438;51.454;6.718;2023-02-02T20:50:09;35.10;;;20.07;;
20559;SDS011;10438;51.454;6.718;2023-02-02T20:52:36;34.23;;;19.13;;
20559;SDS011;10438;51.454;6.718;2023-02-02T20:55:02;33.37;;;19.53;;
20559;SDS011;10438;51.454;6.718;2023-02-02T20:57:28;33.37;;;18.47;;
20559;SDS011;10438;51.454;6.718;2023-02-02T20:59:54;37.47;;;17.93;;
20559;SDS011;10438;51.454;6.718;2023-02-02T21:02:22;34.70;;;17.73;;
20559;SDS011;10438;51.454;6.718;2023-02-02T21:04:48;33.97;;;18.03;;
20559;SDS011;10438;51.454;6.718;2023-02-02T21:07:15;37.07;;;19.10;;
20559;SDS011;10438;51.454;6.718;2023-02-02T21:09:43;34.47;;;18.10;;
20559;SDS011;10438;51.454;6.718;2023-02-02T21:12:10;36.60;;;17.17;;
20559;SDS011;10438;51.454;6.718;2023-02-02T21:14:36;31.37;;;17.33;;
20559;SDS011;10438;51.454;6.718;2023-02-02T21:17:01;29.17;;;15.73;;
20559;SDS011;10438;51.454;6.718;2023-02-02T21:19:27;31.37;;;16.30;;
20559;SDS011;10438;51.454;6.718;2023-02-02T21:21:53;30.00;;;16.93;;
20559;SDS011;10438;51.454;6.718;2023-02-02T21:24:19;28.87;;;16.30;;
20559;SDS011;10438;51.454;6.718;2023-02-02T21:26:45;30.27;;;15.53;;
20559;SDS011;10438;51.454;6.718;2023-02-02T21:29:10;28.77;;;16.57;;
20559;SDS011;10438;51.454;6.718;2023-02-02T21:31:36;28.13;;;15.97;;
20559;SDS011;10438;51.454;6.718;2023-02-02T21:34:03;29.37;;;15.80;;
20559;SDS011;10438;51.454;6.718;2023-02-02T21:36:33;35.20;;;16.77;;
20559;SDS011;10438;51.454;6.718;2023-02-02T21:39:00;30.77;;;15.63;;
20559;SDS011;10438;51.454;6.718;2023-02-02T21:44:32;24.60;;;14.60;;
20559;SDS011;10438;51.454;6.718;2023-02-02T21:46:59;29.77;;;16.40;;
20559;SDS011;10438;51.454;6.718;2023-02-02T21:49:25;29.30;;;16.67;;
20559;SDS011;10438;51.454;6.718;2023-02-02T21:51:57;29.57;;;16.10;;
20559;SDS011;10438;51.454;6.718;2023-02-02T21:54:27;26.97;;;16.43;;
20559;SDS011;10438;51.454;6.718;2023-02-02T21:56:59;30.80;;;15.27;;
20559;SDS011;10438;51.454;6.718;2023-02-02T21:59:32;29.03;;;15.60;;
20559;SDS011;10438;51.454;6.718;2023-02-02T22:02:00;28.23;;;14.90;;
20559;SDS011;10438;51.454;6.718;2023-02-02T22:05:00;31.60;;;15.50;;
20559;SDS011;10438;51.454;6.718;2023-02-02T22:07:26;24.97;;;15.83;;
20559;SDS011;10438;51.454;6.718;2023-02-02T22:09:52;27.97;;;16.30;;
20559;SDS011;10438;51.454;6.718;2023-02-02T22:12:19;29.57;;;15.13;;
20559;SDS011;10438;51.454;6.718;2023-02-02T22:14:47;25.90;;;15.50;;
20559;SDS011;10438;51.454;6.718;2023-02-02T22:19:58;27.13;;;15.53;;
20559;SDS011;10438;51.454;6.718;2023-02-02T22:22:28;26.80;;;15.90;;
20559;SDS011;10438;51.454;6.718;2023-02-02T22:27:41;27.10;;;16.27;;
20559;SDS011;10438;51.454;6.718;2023-02-02T22:32:50;29.53;;;15.67;;